Observations for AUCKLAND INTL A, New Zealand (NZAA)

NZAA 170030Z AUTO 26022KT 9999 VCSH NCD 16/08 Q0999 TEMPO 6000 SHRA FEW020TCU   
NZAA 170000Z AUTO 26021KT 9999 FEW036/// 15/08 Q1000 TEMPO 6000 SHRA
NZAA 162330Z AUTO 26023KT 9999 SCT040/// 15/07 Q1000 NOSIG  
NZAA 162300Z AUTO 27024KT 9999 BKN042/// 15/07 Q1000 NOSIG  
NZAA 162230Z AUTO 26017KT 9999 SCT039/// BKN046/// 15/09 Q0999 NOSIG
NZAA 162200Z AUTO 24006KT 9999 VCSH BKN040/// BKN048/// OVC070/// 13/10 Q0999 NOSIG 
NZAA 162130Z AUTO 27016KT 9999 VCSH FEW037/// BKN045/// BKN050/// 14/09 Q0999 TEMPO 6000 SHRA FEW020TCU 
NZAA 162100Z AUTO 27020KT 9999 -SHRA SCT037/// BKN055/// 12/08 Q0999 TEMPO 6000 SHRA FEW020TCU  
NZAA 162030Z AUTO 26013KT 9999 BKN041/// BKN050/// OVC100/// 13/08 Q0998 TEMPO 6000 SHRA FEW020TCU  
NZAA 162000Z AUTO 27013KT 9999 VCSH FEW036/// OVC090/// 13/08 Q0998 TEMPO 6000 SHRA FEW020TCU   
NZAA 161930Z AUTO 26014KT 9999 VCSH FEW055/// BKN070/// 13/08 Q0998 TEMPO 6000 SHRA FEW020TCU   
NZAA 161900Z AUTO 27012KT 9999 VCSH SCT039/// BKN060/// BKN070/// 13/08 Q0997 TEMPO 6000 SHRA FEW020TCU 
NZAA 161830Z AUTO 27018KT 9999 -RA SCT040/// SCT050/// BKN070/// 13/07 Q0997 TEMPO 6000 SHRA FEW020TCU  
NZAA 161800Z AUTO 25016KT 9999 SCT039/// 13/08 Q0996 TEMPO 6000 SHRA
NZAA 161730Z AUTO 27012KT 9999 BKN040/// 13/10 Q0996 TEMPO 6000 SHRA
NZAA 161700Z AUTO 26014KT 9999 VCSH SCT036/// BKN060/// 13/10 Q0996 TEMPO 5000 SHRA 
NZAA 161630Z AUTO 28015KT 9999 SCT030/// BKN037/// 13/10 Q0996 TEMPO 5000 SHRA  
NZAA 161600Z AUTO 27017KT 9999 -RA FEW025/// SCT037/// BKN095/// 12/10 Q0995 RERA TEMPO 5000 SHRA FEW020CB  
NZAA 161530Z AUTO 30008KT 9999 BKN029/// BKN039/// 13/11 Q0995 REDZ TEMPO 5000 SHRA FEW020CB
NZAA 161500Z AUTO 30010KT 9999 -RA FEW022/// SCT028/// BKN035/// 13/11 Q0995 TEMPO 6000 SHRA FEW020CB   
NZAA 161430Z AUTO 29012KT 9999 FEW026/// 12/10 Q0995 TEMPO 6000 SHRA FEW020CB   
NZAA 161400Z AUTO 29007KT 8000 -RA SCT017/// BKN024/// BKN029/// 12/11 Q0995 RERA TEMPO 4000 +RA FEW020CB   
NZAA 161330Z AUTO 02006KT 9999 DZ SCT028/// BKN047/// 10/09 Q0996 BECMG 27015G25KT TEMPO 4000 +RA FEW020CB  
NZAA 161300Z AUTO 02006KT 9999 VCSH FEW044/// SCT075/// BKN085/// 10/09 Q0996 BECMG 27015G25KT TEMPO 4000 +RA FEW020CB  
NZAA 161230Z AUTO 36005KT 300V030 9999 SCT035/// BKN046/// 12/09 Q0996 BECMG 27015G25KT TEMPO 4000 +RA FEW020CB 
NZAA 161200Z AUTO 32007KT 250V010 9999 FEW048/// 12/08 Q0996 TEMPO FM1230 4000 +RA FEW020CB 
NZAA 161130Z AUTO 32009KT 9999 FEW045/// SCT050/// 12/09 Q0997 TEMPO FM1300 4000 +RA FEW020CB   
NZAA 161100Z AUTO 33007KT 9999 FEW033/// 11/09 Q0997 NOSIG  
NZAA 161030Z AUTO 31008KT 9999 -RA FEW035/// SCT043/// BKN055/// 11/09 Q0997 NOSIG  
NZAA 161000Z AUTO 30009KT 9999 VCSH SCT025 12/09 Q0997 NOSIG
NZAA 160930Z AUTO 29011KT 9999 VCSH SCT025 12/08 Q0997 NOSIG
NZAA 160900Z AUTO 31009KT 9999 -RA FEW039/// BKN050/// BKN065/// 12/09 Q0997 NOSIG  
NZAA 160830Z AUTO 31006KT 9999 FEW055/// 12/09 Q0997 TEMPO 6000 SHRA FEW020TCU  
NZAA 160800Z AUTO 29009KT 9999 -RA FEW028/// SCT036/// BKN047/// 12/09 Q0997 TEMPO 6000 SHRA FEW020TCU  
NZAA 160730Z AUTO 28011KT 9999 SCT025 12/09 Q0997 TEMPO 6000 SHRA FEW020TCU 
NZAA 160700Z AUTO 26014KT 9999 FEW080/// 12/10 Q0997 TEMPO 6000 SHRA FEW020TCU  
NZAA 160630Z AUTO 26010KT 9999 NCD 12/10 Q0996 TEMPO 6000 SHRA FEW020TCU
NZAA 160600Z AUTO 24013KT 9999 VCSH FEW028/// SCT038/// 12/10 Q0996 TEMPO 6000 SHRA FEW020TCU   
NZAA 160530Z AUTO 27014KT 9999 -RA FEW065/// 12/10 Q0996 TEMPO 6000 SHRA FEW020TCU  
NZAA 160500Z AUTO 26013KT 9999 FEW055/// 12/09 Q0996 BECMG 9999 -SHRA TEMPO 6000 SHRA FEW020TCU 
NZAA 160430Z AUTO 25018G29KT 6000 SHRA FEW017/// SCT027/// BKN042/// 13/10 Q0996 BECMG 9999 -SHRA TEMPO 6000 SHRA FEW020TCU 
NZAA 160400Z AUTO 25014KT 9999 VCSH FEW028/// SCT095/// 14/10 Q0996 TEMPO 6000 SHRA FEW020TCU   
NZAA 160330Z AUTO 26015KT 9999 VCSH SCT029/// BKN045/// BKN070/// 14/11 Q0995 TEMPO 6000 SHRA FEW020TCU 
NZAA 160300Z AUTO 25017KT 9999 VCSH FEW027/// SCT034/// 15/10 Q0995 TEMPO 6000 SHRA FEW020TCU   
NZAA 160230Z AUTO 26020KT 8000 -RA FEW027/// SCT043/// 14/11 Q0995 TEMPO 6000 SHRA FEW020TCU
NZAA 160200Z AUTO 26016KT 9999 FEW028/// 15/11 Q0995 TEMPO 6000 SHRA FEW020TCU  
NZAA 160130Z AUTO 27014KT 9999 VCSH FEW060/// 15/11 Q0995 TEMPO 6000 SHRA FEW020TCU 
NZAA 160100Z AUTO 27013KT 9999 -SHRA SCT028/// SCT036/// 15/11 Q0995 TEMPO 6000 SHRA FEW020TCU  
NZAA 160030Z AUTO 27010KT 9999 BKN028/// BKN034/// 15/11 Q0995 TEMPO 6000 SHRA FEW020TCU
NZAA 160000Z AUTO 31006KT 260V340 9999 FEW029/// 14/12 Q0995 TEMPO 6000 SHRA FEW020TCU